NORTHEAST SUFFOLK  -  Winter Weather Advisory Winter Weather Advisory        NORTHERN NASSAU  -  Winter Weather Advisory Winter Weather Advisory        NORTHWEST SUFFOLK  -  Winter Weather Advisory Winter Weather Advisory        SOUTHEAST SUFFOLK  -  Winter Weather Advisory Winter Weather Advisory        SOUTHERN NASSAU  -  Winter Weather Advisory Winter Weather Advisory        SOUTHWEST SUFFOLK  -  Winter Weather Advisory Winter Weather Advisory      

Active alerts

Northern Nassau
  Details for Northern Nassau Winter Weather Advisory
Southern Nassau
  Details for Southern Nassau Winter Weather Advisory
Northwest Suffolk
  Details for Northwest Suffolk Winter Weather Advisory
Southwest Suffolk
  Details for Southwest Suffolk Winter Weather Advisory
Northeast Suffolk
  Details for Northeast Suffolk Winter Weather Advisory
Southeast Suffolk
  Details for Southeast Suffolk Winter Weather Advisory


WXM80 ListenWXM80 Stop

You find our weather info also at:

UK Metoffice

WeatherCloud

Weather Underground

Northeastern Weather Network

AWEKAS

Citizen Weather Observer Program (CWOP)

HAMweather, WeatherForYou, PWS Weather


Weather Underground History page Text

Daily Summary for July 31, 2017 Units:  Both    English   Metric
« Previous Day
Next Day »
Daily Weekly Monthly Yearly Custom
  High: Low: Average:
Temperature: 91.6 °F /  33.1 °C 62.1 °F /  16.7 °C 76.2 °F /  24.6 °C
Dew Point: 67.1 °F /  19.5 °C 56.2 °F /  13.4 °C 62.4 °F /  16.9 °C
Humidity: 85 % 40 % 65 %
Wind Speed: 3.1 mph /  5 km/h - 0.7 mph /  1.1 km/h
Wind Gust: 8.1 mph /  13 km/h - -
Wind:- - SSW
Pressure: 30.03 in /  1016.8 hPa 29.95 in /  1014.1 hPa -
Precipitation: 0.00 in /  0 mm    
Historical Graphs
 
 
Tabular Data for July 31, 2017
Time Temperature Dew Point Pressure Wind Wind Speed Wind Gust Humidity Rainfall Rate (Hourly)
00:02 67.1 °F /  19.5 °C 58.5 °F /  14.7 °C 30.01 in /  1016.1 hPa Calm     74 % 0.00 in /  0 mm
00:07 67.1 °F /  19.5 °C 58.5 °F /  14.7 °C 30.01 in /  1016.1 hPa WSW 1.6 mph /  2.6 km/h 3.5 mph /  5.6 km/h 74 % 0.00 in /  0 mm
00:13 67.1 °F /  19.5 °C 58.5 °F /  14.7 °C 30.01 in /  1016.1 hPa WSW 0.5 mph /  0.8 km/h 3.0 mph /  4.8 km/h 74 % 0.00 in /  0 mm
00:18 67.1 °F /  19.5 °C 58.5 °F /  14.7 °C 30.01 in /  1016.1 hPa SW 0.6 mph /  1 km/h 2.3 mph /  3.7 km/h 74 % 0.00 in /  0 mm
00:23 67.0 °F /  19.4 °C 58.4 °F /  14.7 °C 30.01 in /  1016.1 hPa WSW 0.8 mph /  1.3 km/h 3.5 mph /  5.6 km/h 74 % 0.00 in /  0 mm
00:28 67.1 °F /  19.5 °C 58.9 °F /  14.9 °C 30.01 in /  1016.1 hPa SW 1.3 mph /  2.1 km/h 3.5 mph /  5.6 km/h 75 % 0.00 in /  0 mm
00:33 67.0 °F /  19.4 °C 58.8 °F /  14.9 °C 30.01 in /  1016.1 hPa SW 0.3 mph /  0.5 km/h 2.3 mph /  3.7 km/h 75 % 0.00 in /  0 mm
00:38 67.0 °F /  19.4 °C 59.2 °F /  15.1 °C 30.01 in /  1016.1 hPa WSW 0.6 mph /  1 km/h 2.3 mph /  3.7 km/h 76 % 0.00 in /  0 mm
00:43 67.0 °F /  19.4 °C 59.2 °F /  15.1 °C 30.01 in /  1016.1 hPa WSW 0.1 mph /  0.2 km/h 1.0 mph /  1.6 km/h 76 % 0.00 in /  0 mm
00:48 67.0 °F /  19.4 °C 59.2 °F /  15.1 °C 30.01 in /  1016.1 hPa WSW 0.6 mph /  1 km/h 2.3 mph /  3.7 km/h 76 % 0.00 in /  0 mm
00:53 67.0 °F /  19.4 °C 59.2 °F /  15.1 °C 30.01 in /  1016.1 hPa WSW 0.4 mph /  0.6 km/h 1.2 mph /  1.9 km/h 76 % 0.00 in /  0 mm
00:58 67.0 °F /  19.4 °C 59.2 °F /  15.1 °C 30.01 in /  1016.1 hPa WSW 0.3 mph /  0.5 km/h 3.5 mph /  5.6 km/h 76 % 0.00 in /  0 mm
01:03 67.0 °F /  19.4 °C 59.5 °F /  15.3 °C 30.01 in /  1016.1 hPa West 1.8 mph /  2.9 km/h 4.0 mph /  6.4 km/h 77 % 0.00 in /  0 mm
01:08 67.0 °F /  19.4 °C 59.5 °F /  15.3 °C 30.01 in /  1016.1 hPa WSW 1.3 mph /  2.1 km/h 4.6 mph /  7.4 km/h 77 % 0.00 in /  0 mm
01:13 67.0 °F /  19.4 °C 59.5 °F /  15.3 °C 30.01 in /  1016.1 hPa SW 1.6 mph /  2.6 km/h 3.5 mph /  5.6 km/h 77 % 0.00 in /  0 mm
01:18 66.9 °F /  19.4 °C 59.5 °F /  15.3 °C 30.01 in /  1016.1 hPa WSW 1.5 mph /  2.4 km/h 4.6 mph /  7.4 km/h 77 % 0.00 in /  0 mm
01:23 66.9 °F /  19.4 °C 59.5 °F /  15.3 °C 30.01 in /  1016.1 hPa WSW 0.4 mph /  0.6 km/h 2.3 mph /  3.7 km/h 77 % 0.00 in /  0 mm
01:28 66.9 °F /  19.4 °C 59.5 °F /  15.3 °C 30.01 in /  1016.1 hPa Calm   1.2 mph /  1.9 km/h 77 % 0.00 in /  0 mm
01:33 66.8 °F /  19.3 °C 59.4 °F /  15.2 °C 30.01 in /  1016.1 hPa Calm   2.3 mph /  3.7 km/h 77 % 0.00 in /  0 mm
01:38 66.8 °F /  19.3 °C 59.4 °F /  15.2 °C 30.01 in /  1016.1 hPa WSW 0.7 mph /  1.1 km/h 3.5 mph /  5.6 km/h 77 % 0.00 in /  0 mm
01:44 66.7 °F /  19.3 °C 59.6 °F /  15.3 °C 30.00 in /  1015.8 hPa WSW 0.3 mph /  0.5 km/h 3.5 mph /  5.6 km/h 78 % 0.00 in /  0 mm
01:48 66.6 °F /  19.2 °C 59.5 °F /  15.3 °C 30.00 in /  1015.8 hPa WSW 0.3 mph /  0.5 km/h 3.5 mph /  5.6 km/h 78 % 0.00 in /  0 mm
01:54 66.5 °F /  19.2 °C 59.1 °F /  15.1 °C 30.00 in /  1015.8 hPa WSW 0.1 mph /  0.2 km/h 2.3 mph /  3.7 km/h 77 % 0.00 in /  0 mm
01:58 66.4 °F /  19.1 °C 59.3 °F /  15.2 °C 30.00 in /  1015.8 hPa WSW 0.2 mph /  0.3 km/h 1.2 mph /  1.9 km/h 78 % 0.00 in /  0 mm
02:04 66.3 °F /  19.1 °C 59.2 °F /  15.1 °C 30.00 in /  1015.8 hPa WSW 0.4 mph /  0.6 km/h 3.5 mph /  5.6 km/h 78 % 0.00 in /  0 mm
02:09 66.2 °F /  19 °C 59.1 °F /  15.1 °C 30.00 in /  1015.8 hPa WSW 1.9 mph /  3.1 km/h 3.5 mph /  5.6 km/h 78 % 0.00 in /  0 mm
02:14 66.1 °F /  18.9 °C 59.0 °F /  15 °C 30.00 in /  1015.8 hPa WSW 1.3 mph /  2.1 km/h 4.6 mph /  7.4 km/h 78 % 0.00 in /  0 mm
02:19 66.0 °F /  18.9 °C 58.9 °F /  14.9 °C 30.00 in /  1015.8 hPa WSW 1.1 mph /  1.8 km/h 2.3 mph /  3.7 km/h 78 % 0.00 in /  0 mm
02:24 65.9 °F /  18.8 °C 58.8 °F /  14.9 °C 30.00 in /  1015.8 hPa SW 0.1 mph /  0.2 km/h 1.2 mph /  1.9 km/h 78 % 0.00 in /  0 mm
02:29 65.9 °F /  18.8 °C 58.8 °F /  14.9 °C 30.00 in /  1015.8 hPa SW 1.4 mph /  2.3 km/h 3.5 mph /  5.6 km/h 78 % 0.00 in /  0 mm
02:34 65.8 °F /  18.8 °C 58.7 °F /  14.8 °C 30.00 in /  1015.8 hPa SW 1.4 mph /  2.3 km/h 2.3 mph /  3.7 km/h 78 % 0.00 in /  0 mm
02:39 65.7 °F /  18.7 °C 58.7 °F /  14.8 °C 30.00 in /  1015.8 hPa Calm   1.2 mph /  1.9 km/h 78 % 0.00 in /  0 mm
02:44 65.7 °F /  18.7 °C 58.7 °F /  14.8 °C 30.00 in /  1015.8 hPa WSW 0.7 mph /  1.1 km/h 5.0 mph /  8 km/h 78 % 0.00 in /  0 mm
02:49 65.6 °F /  18.7 °C 58.6 °F /  14.8 °C 30.00 in /  1015.8 hPa SW 1.8 mph /  2.9 km/h 3.5 mph /  5.6 km/h 78 % 0.00 in /  0 mm
02:54 65.4 °F /  18.6 °C 58.4 °F /  14.7 °C 30.00 in /  1015.8 hPa WSW 1.9 mph /  3.1 km/h 3.5 mph /  5.6 km/h 78 % 0.00 in /  0 mm
02:59 65.4 °F /  18.6 °C 58.4 °F /  14.7 °C 30.01 in /  1016.1 hPa WSW 1.6 mph /  2.6 km/h 3.5 mph /  5.6 km/h 78 % 0.00 in /  0 mm
03:04 65.3 °F /  18.5 °C 58.3 °F /  14.6 °C 30.01 in /  1016.1 hPa Calm   1.2 mph /  1.9 km/h 78 % 0.00 in /  0 mm
03:09 65.3 °F /  18.5 °C 58.3 °F /  14.6 °C 30.01 in /  1016.1 hPa Calm   1.2 mph /  1.9 km/h 78 % 0.00 in /  0 mm
03:14 65.2 °F /  18.4 °C 58.2 °F /  14.6 °C 30.00 in /  1015.8 hPa WSW 1.5 mph /  2.4 km/h 3.5 mph /  5.6 km/h 78 % 0.00 in /  0 mm
03:19 65.2 °F /  18.4 °C 58.2 °F /  14.6 °C 30.00 in /  1015.8 hPa WSW 1.4 mph /  2.3 km/h 2.3 mph /  3.7 km/h 78 % 0.00 in /  0 mm
03:24 65.1 °F /  18.4 °C 57.7 °F /  14.3 °C 30.00 in /  1015.8 hPa SW 1.6 mph /  2.6 km/h 3.5 mph /  5.6 km/h 77 % 0.00 in /  0 mm
03:25 65.1 °F /  18.4 °C 57.7 °F /  14.3 °C 30.00 in /  1015.8 hPa SW 0.8 mph /  1.3 km/h 3.5 mph /  5.6 km/h 77 % 0.00 in /  0 mm
03:30 65.0 °F /  18.3 °C 57.6 °F /  14.2 °C 30.00 in /  1015.8 hPa WSW 1.2 mph /  1.9 km/h 2.0 mph /  3.2 km/h 77 % 0.00 in /  0 mm
03:35 65.0 °F /  18.3 °C 57.6 °F /  14.2 °C 30.00 in /  1015.8 hPa WSW 1.3 mph /  2.1 km/h 3.0 mph /  4.8 km/h 77 % 0.00 in /  0 mm
03:40 65.0 °F /  18.3 °C 57.6 °F /  14.2 °C 30.00 in /  1015.8 hPa WSW 0.3 mph /  0.5 km/h 2.3 mph /  3.7 km/h 77 % 0.00 in /  0 mm
03:45 64.9 °F /  18.3 °C 57.5 °F /  14.2 °C 30.00 in /  1015.8 hPa Calm     77 % 0.00 in /  0 mm
03:50 64.9 °F /  18.3 °C 57.2 °F /  14 °C 30.00 in /  1015.8 hPa WSW 0.1 mph /  0.2 km/h   76 % 0.00 in /  0 mm
03:55 64.8 °F /  18.2 °C 57.1 °F /  13.9 °C 30.00 in /  1015.8 hPa WSW 1.0 mph /  1.6 km/h 3.5 mph /  5.6 km/h 76 % 0.00 in /  0 mm
04:00 64.8 °F /  18.2 °C 57.1 °F /  13.9 °C 30.00 in /  1015.8 hPa WSW 0.4 mph /  0.6 km/h 2.3 mph /  3.7 km/h 76 % 0.00 in /  0 mm
04:05 64.7 °F /  18.2 °C 57.0 °F /  13.9 °C 30.00 in /  1015.8 hPa WSW 0.7 mph /  1.1 km/h 2.3 mph /  3.7 km/h 76 % 0.00 in /  0 mm
04:10 64.6 °F /  18.1 °C 57.2 °F /  14 °C 30.00 in /  1015.8 hPa Calm   1.2 mph /  1.9 km/h 77 % 0.00 in /  0 mm
04:15 64.6 °F /  18.1 °C 57.2 °F /  14 °C 30.00 in /  1015.8 hPa SW 1.8 mph /  2.9 km/h 4.0 mph /  6.4 km/h 77 % 0.00 in /  0 mm
04:20 64.5 °F /  18.1 °C 56.8 °F /  13.8 °C 30.00 in /  1015.8 hPa West 2.2 mph /  3.5 km/h 2.3 mph /  3.7 km/h 76 % 0.00 in /  0 mm
04:26 64.4 °F /  18 °C 56.7 °F /  13.7 °C 30.00 in /  1015.8 hPa Calm   4.0 mph /  6.4 km/h 76 % 0.00 in /  0 mm
04:31 64.3 °F /  17.9 °C 56.6 °F /  13.7 °C 30.00 in /  1015.8 hPa SW 0.2 mph /  0.3 km/h 1.2 mph /  1.9 km/h 76 % 0.00 in /  0 mm
04:36 64.3 °F /  17.9 °C 56.6 °F /  13.7 °C 30.00 in /  1015.8 hPa Calm   1.0 mph /  1.6 km/h 76 % 0.00 in /  0 mm
04:41 64.2 °F /  17.9 °C 56.8 °F /  13.8 °C 30.00 in /  1015.8 hPa Calm   2.0 mph /  3.2 km/h 77 % 0.00 in /  0 mm
04:46 64.1 °F /  17.8 °C 56.7 °F /  13.7 °C 30.00 in /  1015.8 hPa Calm   1.0 mph /  1.6 km/h 77 % 0.00 in /  0 mm
04:51 64.0 °F /  17.8 °C 56.6 °F /  13.7 °C 30.00 in /  1015.8 hPa Calm   2.0 mph /  3.2 km/h 77 % 0.00 in /  0 mm
04:56 63.9 °F /  17.7 °C 56.5 °F /  13.6 °C 30.00 in /  1015.8 hPa SW 1.0 mph /  1.6 km/h 3.0 mph /  4.8 km/h 77 % 0.00 in /  0 mm
05:01 63.7 °F /  17.6 °C 56.4 °F /  13.6 °C 30.00 in /  1015.8 hPa SW 0.5 mph /  0.8 km/h 2.3 mph /  3.7 km/h 77 % 0.00 in /  0 mm
05:06 63.6 °F /  17.6 °C 56.6 °F /  13.7 °C 30.00 in /  1015.8 hPa SW 0.3 mph /  0.5 km/h 3.0 mph /  4.8 km/h 78 % 0.00 in /  0 mm
05:11 63.5 °F /  17.5 °C 56.5 °F /  13.6 °C 30.01 in /  1016.1 hPa SW 0.1 mph /  0.2 km/h 2.0 mph /  3.2 km/h 78 % 0.00 in /  0 mm
05:16 63.3 °F /  17.4 °C 56.3 °F /  13.5 °C 30.00 in /  1015.8 hPa Calm     78 % 0.00 in /  0 mm
05:21 63.2 °F /  17.3 °C 56.6 °F /  13.7 °C 30.00 in /  1015.8 hPa SW 0.1 mph /  0.2 km/h 1.2 mph /  1.9 km/h 79 % 0.00 in /  0 mm
05:26 63.1 °F /  17.3 °C 56.5 °F /  13.6 °C 30.00 in /  1015.8 hPa Calm   1.0 mph /  1.6 km/h 79 % 0.00 in /  0 mm
05:31 63.0 °F /  17.2 °C 56.4 °F /  13.6 °C 30.01 in /  1016.1 hPa SW 0.1 mph /  0.2 km/h 1.2 mph /  1.9 km/h 79 % 0.00 in /  0 mm
05:36 62.9 °F /  17.2 °C 56.3 °F /  13.5 °C 30.01 in /  1016.1 hPa Calm     79 % 0.00 in /  0 mm
05:41 62.8 °F /  17.1 °C 56.2 °F /  13.4 °C 30.01 in /  1016.1 hPa SW 0.1 mph /  0.2 km/h 1.2 mph /  1.9 km/h 79 % 0.00 in /  0 mm
05:46 62.7 °F /  17.1 °C 56.4 °F /  13.6 °C 30.01 in /  1016.1 hPa Calm     80 % 0.00 in /  0 mm
05:51 62.7 °F /  17.1 °C 56.4 °F /  13.6 °C 30.01 in /  1016.1 hPa SW 0.1 mph /  0.2 km/h 1.0 mph /  1.6 km/h 80 % 0.00 in /  0 mm
05:56 62.6 °F /  17 °C 56.3 °F /  13.5 °C 30.01 in /  1016.1 hPa Calm   1.2 mph /  1.9 km/h 80 % 0.00 in /  0 mm
06:01 62.4 °F /  16.9 °C 56.5 °F /  13.6 °C 30.01 in /  1016.1 hPa SSE 0.1 mph /  0.2 km/h 1.2 mph /  1.9 km/h 81 % 0.00 in /  0 mm
06:06 62.3 °F /  16.8 °C 56.4 °F /  13.6 °C 30.01 in /  1016.1 hPa SSE 0.6 mph /  1 km/h 2.3 mph /  3.7 km/h 81 % 0.00 in /  0 mm
06:11 62.2 °F /  16.8 °C 56.3 °F /  13.5 °C 30.01 in /  1016.1 hPa SSE 0.7 mph /  1.1 km/h 3.5 mph /  5.6 km/h 81 % 0.00 in /  0 mm
06:16 62.1 °F /  16.7 °C 56.5 °F /  13.6 °C 30.01 in /  1016.1 hPa WSW 0.4 mph /  0.6 km/h 2.3 mph /  3.7 km/h 82 % 0.00 in /  0 mm
06:21 62.1 °F /  16.7 °C 56.5 °F /  13.6 °C 30.02 in /  1016.5 hPa SW 0.6 mph /  1 km/h 2.0 mph /  3.2 km/h 82 % 0.00 in /  0 mm
06:26 62.1 °F /  16.7 °C 56.5 °F /  13.6 °C 30.01 in /  1016.1 hPa Calm   1.2 mph /  1.9 km/h 82 % 0.00 in /  0 mm
06:31 62.2 °F /  16.8 °C 57.0 °F /  13.9 °C 30.02 in /  1016.5 hPa Calm     83 % 0.00 in /  0 mm
06:36 62.3 °F /  16.8 °C 57.1 °F /  13.9 °C 30.02 in /  1016.5 hPa Calm   1.2 mph /  1.9 km/h 83 % 0.00 in /  0 mm
06:42 62.5 °F /  16.9 °C 57.6 °F /  14.2 °C 30.02 in /  1016.5 hPa Calm     84 % 0.00 in /  0 mm
06:47 62.7 °F /  17.1 °C 58.1 °F /  14.5 °C 30.02 in /  1016.5 hPa Calm     85 % 0.00 in /  0 mm
06:52 63.0 °F /  17.2 °C 58.4 °F /  14.7 °C 30.02 in /  1016.5 hPa Calm     85 % 0.00 in /  0 mm
06:57 63.3 °F /  17.4 °C 58.7 °F /  14.8 °C 30.02 in /  1016.5 hPa Calm     85 % 0.00 in /  0 mm
07:02 63.7 °F /  17.6 °C 58.8 °F /  14.9 °C 30.02 in /  1016.5 hPa Calm     84 % 0.00 in /  0 mm
07:07 64.1 °F /  17.8 °C 59.5 °F /  15.3 °C 30.02 in /  1016.5 hPa Calm     85 % 0.00 in /  0 mm
07:12 64.6 °F /  18.1 °C 59.7 °F /  15.4 °C 30.02 in /  1016.5 hPa Calm     84 % 0.00 in /  0 mm
07:17 65.2 °F /  18.4 °C 60.6 °F /  15.9 °C 30.02 in /  1016.5 hPa Calm   1.2 mph /  1.9 km/h 85 % 0.00 in /  0 mm
07:22 65.8 °F /  18.8 °C 61.2 °F /  16.2 °C 30.02 in /  1016.5 hPa Calm   1.2 mph /  1.9 km/h 85 % 0.00 in /  0 mm
07:27 66.5 °F /  19.2 °C 61.5 °F /  16.4 °C 30.02 in /  1016.5 hPa South 0.1 mph /  0.2 km/h 1.2 mph /  1.9 km/h 84 % 0.00 in /  0 mm
07:32 67.1 °F /  19.5 °C 61.8 °F /  16.6 °C 30.02 in /  1016.5 hPa South 0.1 mph /  0.2 km/h 2.3 mph /  3.7 km/h 83 % 0.00 in /  0 mm
07:37 67.8 °F /  19.9 °C 62.4 °F /  16.9 °C 30.02 in /  1016.5 hPa Calm     83 % 0.00 in /  0 mm
07:42 68.2 °F /  20.1 °C 62.8 °F /  17.1 °C 30.02 in /  1016.5 hPa Calm     83 % 0.00 in /  0 mm
07:44 68.4 °F /  20.2 °C 62.7 °F /  17.1 °C 30.02 in /  1016.5 hPa Calm   1.2 mph /  1.9 km/h 82 % 0.00 in /  0 mm
07:49 68.6 °F /  20.3 °C 62.9 °F /  17.2 °C 30.02 in /  1016.5 hPa Calm   1.2 mph /  1.9 km/h 82 % 0.00 in /  0 mm
07:54 68.9 °F /  20.5 °C 62.8 °F /  17.1 °C 30.02 in /  1016.5 hPa Calm     81 % 0.00 in /  0 mm
07:59 69.0 °F /  20.6 °C 62.9 °F /  17.2 °C 30.02 in /  1016.5 hPa Calm     81 % 0.00 in /  0 mm
08:04 69.2 °F /  20.7 °C 62.8 °F /  17.1 °C 30.02 in /  1016.5 hPa West 2.4 mph /  3.9 km/h 4.6 mph /  7.4 km/h 80 % 0.00 in /  0 mm
08:09 69.2 °F /  20.7 °C 62.8 °F /  17.1 °C 30.02 in /  1016.5 hPa Calm   2.3 mph /  3.7 km/h 80 % 0.00 in /  0 mm
08:14 69.3 °F /  20.7 °C 62.9 °F /  17.2 °C 30.03 in /  1016.8 hPa West 0.4 mph /  0.6 km/h 2.3 mph /  3.7 km/h 80 % 0.00 in /  0 mm
08:19 69.3 °F /  20.7 °C 63.2 °F /  17.3 °C 30.02 in /  1016.5 hPa Calm     81 % 0.00 in /  0 mm
08:24 69.4 °F /  20.8 °C 63.0 °F /  17.2 °C 30.02 in /  1016.5 hPa West 0.3 mph /  0.5 km/h 3.5 mph /  5.6 km/h 80 % 0.00 in /  0 mm
08:29 69.5 °F /  20.8 °C 63.4 °F /  17.4 °C 30.02 in /  1016.5 hPa WNW 1.8 mph /  2.9 km/h 2.3 mph /  3.7 km/h 81 % 0.00 in /  0 mm
08:34 69.6 °F /  20.9 °C 63.5 °F /  17.5 °C 30.02 in /  1016.5 hPa WNW 0.7 mph /  1.1 km/h 2.3 mph /  3.7 km/h 81 % 0.00 in /  0 mm
08:39 69.8 °F /  21 °C 64.1 °F /  17.8 °C 30.02 in /  1016.5 hPa WNW 0.8 mph /  1.3 km/h 1.2 mph /  1.9 km/h 82 % 0.00 in /  0 mm
08:44 70.0 °F /  21.1 °C 63.9 °F /  17.7 °C 30.02 in /  1016.5 hPa WNW 1.5 mph /  2.4 km/h 3.0 mph /  4.8 km/h 81 % 0.00 in /  0 mm
08:49 70.2 °F /  21.2 °C 64.1 °F /  17.8 °C 30.02 in /  1016.5 hPa Calm     81 % 0.00 in /  0 mm
08:54 70.3 °F /  21.3 °C 64.2 °F /  17.9 °C 30.02 in /  1016.5 hPa Calm     81 % 0.00 in /  0 mm
08:59 70.6 °F /  21.4 °C 63.8 °F /  17.7 °C 30.02 in /  1016.5 hPa WNW 0.9 mph /  1.4 km/h 3.5 mph /  5.6 km/h 79 % 0.00 in /  0 mm
09:04 70.8 °F /  21.6 °C 63.6 °F /  17.6 °C 30.02 in /  1016.5 hPa WNW 0.8 mph /  1.3 km/h 1.2 mph /  1.9 km/h 78 % 0.00 in /  0 mm
09:09 71.0 °F /  21.7 °C 63.8 °F /  17.7 °C 30.02 in /  1016.5 hPa ESE 0.1 mph /  0.2 km/h 1.2 mph /  1.9 km/h 78 % 0.00 in /  0 mm
09:15 71.3 °F /  21.8 °C 63.7 °F /  17.6 °C 30.02 in /  1016.5 hPa NE 1.1 mph /  1.8 km/h 3.5 mph /  5.6 km/h 77 % 0.00 in /  0 mm
09:20 71.5 °F /  21.9 °C 63.5 °F /  17.5 °C 30.02 in /  1016.5 hPa WSW 1.5 mph /  2.4 km/h 1.5 mph /  2.4 km/h 76 % 0.00 in /  0 mm
09:25 71.7 °F /  22.1 °C 63.4 °F /  17.4 °C 30.02 in /  1016.5 hPa WSW 0.1 mph /  0.2 km/h 1.2 mph /  1.9 km/h 75 % 0.00 in /  0 mm
09:30 72.0 °F /  22.2 °C 64.4 °F /  18 °C 30.02 in /  1016.5 hPa North 0.2 mph /  0.3 km/h 1.2 mph /  1.9 km/h 77 % 0.00 in /  0 mm
09:35 72.2 °F /  22.3 °C 64.6 °F /  18.1 °C 30.02 in /  1016.5 hPa WNW 0.9 mph /  1.4 km/h 3.5 mph /  5.6 km/h 77 % 0.00 in /  0 mm
09:40 72.4 °F /  22.4 °C 64.4 °F /  18 °C 30.02 in /  1016.5 hPa Calm     76 % 0.00 in /  0 mm
09:45 72.5 °F /  22.5 °C 64.1 °F /  17.8 °C 30.03 in /  1016.8 hPa WNW 0.4 mph /  0.6 km/h 2.0 mph /  3.2 km/h 75 % 0.00 in /  0 mm
09:50 72.7 °F /  22.6 °C 64.7 °F /  18.2 °C 30.02 in /  1016.5 hPa WNW 0.7 mph /  1.1 km/h 3.5 mph /  5.6 km/h 76 % 0.00 in /  0 mm
09:55 72.9 °F /  22.7 °C 64.1 °F /  17.8 °C 30.03 in /  1016.8 hPa NW 0.1 mph /  0.2 km/h 3.5 mph /  5.6 km/h 74 % 0.00 in /  0 mm
10:00 73.3 °F /  22.9 °C 65.7 °F /  18.7 °C 30.03 in /  1016.8 hPa NW 0.6 mph /  1 km/h 2.3 mph /  3.7 km/h 77 % 0.00 in /  0 mm
10:05 74.0 °F /  23.3 °C 66.0 °F /  18.9 °C 30.03 in /  1016.8 hPa NW 1.0 mph /  1.6 km/h 3.5 mph /  5.6 km/h 76 % 0.00 in /  0 mm
10:10 74.8 °F /  23.8 °C 66.0 °F /  18.9 °C 30.03 in /  1016.8 hPa NW 0.6 mph /  1 km/h 2.3 mph /  3.7 km/h 74 % 0.00 in /  0 mm
10:15 75.9 °F /  24.4 °C 65.4 °F /  18.6 °C 30.03 in /  1016.8 hPa Calm   1.2 mph /  1.9 km/h 70 % 0.00 in /  0 mm
10:20 77.4 °F /  25.2 °C 66.0 °F /  18.9 °C 30.02 in /  1016.5 hPa NNW 0.4 mph /  0.6 km/h 1.0 mph /  1.6 km/h 68 % 0.00 in /  0 mm
10:25 78.7 °F /  25.9 °C 65.9 °F /  18.8 °C 30.03 in /  1016.8 hPa NNW 0.8 mph /  1.3 km/h 2.3 mph /  3.7 km/h 65 % 0.00 in /  0 mm
10:30 79.6 °F /  26.4 °C 63.0 °F /  17.2 °C 30.03 in /  1016.8 hPa NNW 0.2 mph /  0.3 km/h 3.5 mph /  5.6 km/h 57 % 0.00 in /  0 mm
10:35 80.3 °F /  26.8 °C 63.2 °F /  17.3 °C 30.03 in /  1016.8 hPa NW 0.9 mph /  1.4 km/h 2.3 mph /  3.7 km/h 56 % 0.00 in /  0 mm
10:40 81.0 °F /  27.2 °C 63.8 °F /  17.7 °C 30.02 in /  1016.5 hPa Calm   1.2 mph /  1.9 km/h 56 % 0.00 in /  0 mm
10:45 82.0 °F /  27.8 °C 63.7 °F /  17.6 °C 30.03 in /  1016.8 hPa NNW 0.3 mph /  0.5 km/h 2.3 mph /  3.7 km/h 54 % 0.00 in /  0 mm
10:50 82.9 °F /  28.3 °C 64.0 °F /  17.8 °C 30.03 in /  1016.8 hPa North 1.0 mph /  1.6 km/h 2.3 mph /  3.7 km/h 53 % 0.00 in /  0 mm
10:55 83.7 °F /  28.7 °C 64.2 °F /  17.9 °C 30.03 in /  1016.8 hPa West 0.1 mph /  0.2 km/h 2.3 mph /  3.7 km/h 52 % 0.00 in /  0 mm
11:00 84.3 °F /  29.1 °C 64.8 °F /  18.2 °C 30.03 in /  1016.8 hPa NNW 1.0 mph /  1.6 km/h 3.5 mph /  5.6 km/h 52 % 0.00 in /  0 mm
11:06 84.8 °F /  29.3 °C 63.5 °F /  17.5 °C 30.03 in /  1016.8 hPa NNW 2.0 mph /  3.2 km/h 5.0 mph /  8 km/h 49 % 0.00 in /  0 mm
11:11 85.3 °F /  29.6 °C 65.1 °F /  18.4 °C 30.03 in /  1016.8 hPa ESE 1.3 mph /  2.1 km/h 2.3 mph /  3.7 km/h 51 % 0.00 in /  0 mm
11:16 85.6 °F /  29.8 °C 63.1 °F /  17.3 °C 30.03 in /  1016.8 hPa North 2.0 mph /  3.2 km/h 5.0 mph /  8 km/h 47 % 0.00 in /  0 mm
11:21 85.9 °F /  29.9 °C 63.4 °F /  17.4 °C 30.02 in /  1016.5 hPa North 1.0 mph /  1.6 km/h 3.0 mph /  4.8 km/h 47 % 0.00 in /  0 mm
11:26 86.3 °F /  30.2 °C 63.1 °F /  17.3 °C 30.03 in /  1016.8 hPa North 2.0 mph /  3.2 km/h 4.0 mph /  6.4 km/h 46 % 0.00 in /  0 mm
11:31 86.7 °F /  30.4 °C 63.4 °F /  17.4 °C 30.03 in /  1016.8 hPa Calm   3.0 mph /  4.8 km/h 46 % 0.00 in /  0 mm
11:36 86.9 °F /  30.5 °C 63.6 °F /  17.6 °C 30.03 in /  1016.8 hPa NNW 1.0 mph /  1.6 km/h 3.0 mph /  4.8 km/h 46 % 0.00 in /  0 mm
11:41 87.1 °F /  30.6 °C 63.2 °F /  17.3 °C 30.03 in /  1016.8 hPa North 1.0 mph /  1.6 km/h 3.0 mph /  4.8 km/h 45 % 0.00 in /  0 mm
11:46 87.2 °F /  30.7 °C 63.9 °F /  17.7 °C 30.02 in /  1016.5 hPa NNE 1.0 mph /  1.6 km/h 4.0 mph /  6.4 km/h 46 % 0.00 in /  0 mm
11:51 87.4 °F /  30.8 °C 64.1 °F /  17.8 °C 30.02 in /  1016.5 hPa Calm   3.0 mph /  4.8 km/h 46 % 0.00 in /  0 mm
11:55 87.4 °F /  30.8 °C 62.8 °F /  17.1 °C 30.02 in /  1016.5 hPa NE 1.5 mph /  2.4 km/h 2.3 mph /  3.7 km/h 44 % 0.00 in /  0 mm
12:01 87.2 °F /  30.7 °C 62.6 °F /  17 °C 30.03 in /  1016.8 hPa ENE 1.9 mph /  3.1 km/h 3.5 mph /  5.6 km/h 44 % 0.00 in /  0 mm
12:06 87.2 °F /  30.7 °C 63.9 °F /  17.7 °C 30.03 in /  1016.8 hPa NE 1.1 mph /  1.8 km/h 3.5 mph /  5.6 km/h 46 % 0.00 in /  0 mm
12:11 87.4 °F /  30.8 °C 64.7 °F /  18.2 °C 30.02 in /  1016.5 hPa Calm   2.3 mph /  3.7 km/h 47 % 0.00 in /  0 mm
12:16 87.6 °F /  30.9 °C 63.0 °F /  17.2 °C 30.02 in /  1016.5 hPa NNW 1.5 mph /  2.4 km/h 4.0 mph /  6.4 km/h 44 % 0.00 in /  0 mm
12:21 87.8 °F /  31 °C 63.8 °F /  17.7 °C 30.02 in /  1016.5 hPa WNW 1.7 mph /  2.7 km/h 4.0 mph /  6.4 km/h 45 % 0.00 in /  0 mm
12:26 88.1 °F /  31.2 °C 64.1 °F /  17.8 °C 30.02 in /  1016.5 hPa NW 1.2 mph /  1.9 km/h 3.0 mph /  4.8 km/h 45 % 0.00 in /  0 mm
12:31 88.2 °F /  31.2 °C 64.8 °F /  18.2 °C 30.01 in /  1016.1 hPa North 2.4 mph /  3.9 km/h 3.5 mph /  5.6 km/h 46 % 0.00 in /  0 mm
12:36 88.4 °F /  31.3 °C 64.4 °F /  18 °C 30.01 in /  1016.1 hPa ENE 1.7 mph /  2.7 km/h 4.0 mph /  6.4 km/h 45 % 0.00 in /  0 mm
12:41 88.1 °F /  31.2 °C 65.3 °F /  18.5 °C 30.01 in /  1016.1 hPa NE 2.0 mph /  3.2 km/h 3.5 mph /  5.6 km/h 47 % 0.00 in /  0 mm
12:46 88.3 °F /  31.3 °C 63.6 °F /  17.6 °C 30.01 in /  1016.1 hPa NNE 0.3 mph /  0.5 km/h 2.3 mph /  3.7 km/h 44 % 0.00 in /  0 mm
12:51 88.6 °F /  31.4 °C 65.8 °F /  18.8 °C 30.01 in /  1016.1 hPa NW 0.3 mph /  0.5 km/h 3.5 mph /  5.6 km/h 47 % 0.00 in /  0 mm
12:56 88.8 °F /  31.6 °C 62.1 °F /  16.7 °C 30.01 in /  1016.1 hPa WNW 2.1 mph /  3.4 km/h 3.5 mph /  5.6 km/h 41 % 0.00 in /  0 mm
13:01 88.9 °F /  31.6 °C 63.5 °F /  17.5 °C 30.01 in /  1016.1 hPa NW 0.1 mph /  0.2 km/h 2.3 mph /  3.7 km/h 43 % 0.00 in /  0 mm
13:06 88.9 °F /  31.6 °C 64.8 °F /  18.2 °C 30.01 in /  1016.1 hPa NNE 1.7 mph /  2.7 km/h 3.5 mph /  5.6 km/h 45 % 0.00 in /  0 mm
13:11 89.1 °F /  31.7 °C 64.3 °F /  17.9 °C 30.01 in /  1016.1 hPa NNE 1.9 mph /  3.1 km/h 3.5 mph /  5.6 km/h 44 % 0.00 in /  0 mm
13:16 89.2 °F /  31.8 °C 64.4 °F /  18 °C 30.01 in /  1016.1 hPa NNE 2.6 mph /  4.2 km/h 5.0 mph /  8 km/h 44 % 0.00 in /  0 mm
13:21 89.2 °F /  31.8 °C 63.8 °F /  17.7 °C 30.01 in /  1016.1 hPa NNW 1.1 mph /  1.8 km/h 3.5 mph /  5.6 km/h 43 % 0.00 in /  0 mm
13:26 89.4 °F /  31.9 °C 64.6 °F /  18.1 °C 30.00 in /  1015.8 hPa NNE 2.0 mph /  3.2 km/h 3.0 mph /  4.8 km/h 44 % 0.00 in /  0 mm
13:32 89.6 °F /  32 °C 66.1 °F /  18.9 °C 30.00 in /  1015.8 hPa NNW 0.5 mph /  0.8 km/h 3.0 mph /  4.8 km/h 46 % 0.00 in /  0 mm
13:37 89.7 °F /  32.1 °C 64.9 °F /  18.3 °C 30.00 in /  1015.8 hPa North 1.5 mph /  2.4 km/h 3.5 mph /  5.6 km/h 44 % 0.00 in /  0 mm
13:42 90.0 °F /  32.2 °C 65.2 °F /  18.4 °C 30.00 in /  1015.8 hPa North 2.0 mph /  3.2 km/h 4.0 mph /  6.4 km/h 44 % 0.00 in /  0 mm
13:47 90.2 °F /  32.3 °C 65.3 °F /  18.5 °C 30.00 in /  1015.8 hPa North 2.3 mph /  3.7 km/h 3.5 mph /  5.6 km/h 44 % 0.00 in /  0 mm
13:52 90.4 °F /  32.4 °C 65.5 °F /  18.6 °C 29.99 in /  1015.5 hPa NNE 1.9 mph /  3.1 km/h 3.5 mph /  5.6 km/h 44 % 0.00 in /  0 mm
13:57 90.6 °F /  32.6 °C 64.4 °F /  18 °C 29.99 in /  1015.5 hPa WNW 2.9 mph /  4.7 km/h 3.5 mph /  5.6 km/h 42 % 0.00 in /  0 mm
14:02 90.8 °F /  32.7 °C 64.5 °F /  18.1 °C 29.99 in /  1015.5 hPa WNW 1.6 mph /  2.6 km/h 3.5 mph /  5.6 km/h 42 % 0.00 in /  0 mm
14:07 90.8 °F /  32.7 °C 63.9 °F /  17.7 °C 29.99 in /  1015.5 hPa NNW 0.6 mph /  1 km/h 3.5 mph /  5.6 km/h 41 % 0.00 in /  0 mm
14:12 90.9 °F /  32.7 °C 63.2 °F /  17.3 °C 29.99 in /  1015.5 hPa NW 1.4 mph /  2.3 km/h 3.5 mph /  5.6 km/h 40 % 0.00 in /  0 mm
14:17 90.8 °F /  32.7 °C 63.9 °F /  17.7 °C 29.98 in /  1015.1 hPa WNW 1.3 mph /  2.1 km/h 3.0 mph /  4.8 km/h 41 % 0.00 in /  0 mm
14:22 90.6 °F /  32.6 °C 63.0 °F /  17.2 °C 29.98 in /  1015.1 hPa WSW 0.1 mph /  0.2 km/h 1.2 mph /  1.9 km/h 40 % 0.00 in /  0 mm
14:27 90.6 °F /  32.6 °C 65.7 °F /  18.7 °C 29.98 in /  1015.1 hPa NNW 2.2 mph /  3.5 km/h 4.0 mph /  6.4 km/h 44 % 0.00 in /  0 mm
14:32 90.6 °F /  32.6 °C 63.7 °F /  17.6 °C 29.98 in /  1015.1 hPa NNE 1.3 mph /  2.1 km/h 3.5 mph /  5.6 km/h 41 % 0.00 in /  0 mm
14:37 90.5 °F /  32.5 °C 64.3 °F /  17.9 °C 29.98 in /  1015.1 hPa NNE 1.0 mph /  1.6 km/h 3.5 mph /  5.6 km/h 42 % 0.00 in /  0 mm
14:42 90.4 °F /  32.4 °C 63.5 °F /  17.5 °C 29.98 in /  1015.1 hPa NNE 2.4 mph /  3.9 km/h 3.5 mph /  5.6 km/h 41 % 0.00 in /  0 mm
14:47 90.3 °F /  32.4 °C 64.8 °F /  18.2 °C 29.98 in /  1015.1 hPa North 1.4 mph /  2.3 km/h 3.0 mph /  4.8 km/h 43 % 0.00 in /  0 mm
14:53 90.4 °F /  32.4 °C 64.9 °F /  18.3 °C 29.98 in /  1015.1 hPa NNE 0.8 mph /  1.3 km/h 2.3 mph /  3.7 km/h 43 % 0.00 in /  0 mm
14:58 90.5 °F /  32.5 °C 64.9 °F /  18.3 °C 29.98 in /  1015.1 hPa North 0.3 mph /  0.5 km/h 2.0 mph /  3.2 km/h 43 % 0.00 in /  0 mm
15:03 90.7 °F /  32.6 °C 65.1 °F /  18.4 °C 29.98 in /  1015.1 hPa NNW 1.3 mph /  2.1 km/h 3.5 mph /  5.6 km/h 43 % 0.00 in /  0 mm
15:08 90.7 °F /  32.6 °C 66.4 °F /  19.1 °C 29.97 in /  1014.8 hPa WNW 0.1 mph /  0.2 km/h 2.0 mph /  3.2 km/h 45 % 0.00 in /  0 mm
15:13 90.8 °F /  32.7 °C 65.2 °F /  18.4 °C 29.97 in /  1014.8 hPa West 0.2 mph /  0.3 km/h 1.2 mph /  1.9 km/h 43 % 0.00 in /  0 mm
15:18 91.0 °F /  32.8 °C 64.0 °F /  17.8 °C 29.97 in /  1014.8 hPa WSW 1.9 mph /  3.1 km/h 3.5 mph /  5.6 km/h 41 % 0.00 in /  0 mm
15:23 91.1 °F /  32.8 °C 65.5 °F /  18.6 °C 29.96 in /  1014.4 hPa South 0.5 mph /  0.8 km/h 1.2 mph /  1.9 km/h 43 % 0.00 in /  0 mm
15:28 91.1 °F /  32.8 °C 64.8 °F /  18.2 °C 29.96 in /  1014.4 hPa South 1.7 mph /  2.7 km/h 3.5 mph /  5.6 km/h 42 % 0.00 in /  0 mm
15:33 91.2 °F /  32.9 °C 64.2 °F /  17.9 °C 29.96 in /  1014.4 hPa NE 0.2 mph /  0.3 km/h 1.2 mph /  1.9 km/h 41 % 0.00 in /  0 mm
15:38 91.3 °F /  32.9 °C 65.0 °F /  18.3 °C 29.96 in /  1014.4 hPa West 1.1 mph /  1.8 km/h 2.3 mph /  3.7 km/h 42 % 0.00 in /  0 mm
15:43 91.5 °F /  33.1 °C 64.5 °F /  18.1 °C 29.96 in /  1014.4 hPa West 3.0 mph /  4.8 km/h 3.5 mph /  5.6 km/h 41 % 0.00 in /  0 mm
15:48 91.6 °F /  33.1 °C 65.3 °F /  18.5 °C 29.96 in /  1014.4 hPa NNE 2.2 mph /  3.5 km/h 3.5 mph /  5.6 km/h 42 % 0.00 in /  0 mm
15:53 91.4 °F /  33 °C 65.8 °F /  18.8 °C 29.96 in /  1014.4 hPa NW 1.9 mph /  3.1 km/h 2.3 mph /  3.7 km/h 43 % 0.00 in /  0 mm
15:58 91.3 °F /  32.9 °C 65.0 °F /  18.3 °C 29.95 in /  1014.1 hPa NE 0.9 mph /  1.4 km/h 3.5 mph /  5.6 km/h 42 % 0.00 in /  0 mm
16:03 91.3 °F /  32.9 °C 65.7 °F /  18.7 °C 29.96 in /  1014.4 hPa NNE 1.2 mph /  1.9 km/h 3.5 mph /  5.6 km/h 43 % 0.00 in /  0 mm
16:04 91.3 °F /  32.9 °C 66.3 °F /  19.1 °C 29.95 in /  1014.1 hPa NNE 0.8 mph /  1.3 km/h 2.3 mph /  3.7 km/h 44 % 0.00 in /  0 mm
16:09 91.4 °F /  33 °C 67.1 °F /  19.5 °C 29.96 in /  1014.4 hPa Calm     45 % 0.00 in /  0 mm
16:14 91.3 °F /  32.9 °C 65.7 °F /  18.7 °C 29.96 in /  1014.4 hPa North 0.1 mph /  0.2 km/h 1.2 mph /  1.9 km/h 43 % 0.00 in /  0 mm
16:19 91.1 °F /  32.8 °C 65.5 °F /  18.6 °C 29.96 in /  1014.4 hPa NNE 0.7 mph /  1.1 km/h 2.3 mph /  3.7 km/h 43 % 0.00 in /  0 mm
16:24 90.9 °F /  32.7 °C 66.6 °F /  19.2 °C 29.96 in /  1014.4 hPa NNE 0.7 mph /  1.1 km/h 2.3 mph /  3.7 km/h 45 % 0.00 in /  0 mm
16:29 90.8 °F /  32.7 °C 65.9 °F /  18.8 °C 29.95 in /  1014.1 hPa NNE 0.5 mph /  0.8 km/h 2.3 mph /  3.7 km/h 44 % 0.00 in /  0 mm
16:34 90.6 °F /  32.6 °C 64.4 °F /  18 °C 29.95 in /  1014.1 hPa NE 0.6 mph /  1 km/h 2.3 mph /  3.7 km/h 42 % 0.00 in /  0 mm
16:39 90.5 °F /  32.5 °C 64.9 °F /  18.3 °C 29.95 in /  1014.1 hPa NNE 0.7 mph /  1.1 km/h 3.5 mph /  5.6 km/h 43 % 0.00 in /  0 mm
16:44 90.4 °F /  32.4 °C 65.5 °F /  18.6 °C 29.95 in /  1014.1 hPa Calm     44 % 0.00 in /  0 mm
16:49 90.4 °F /  32.4 °C 64.9 °F /  18.3 °C 29.95 in /  1014.1 hPa Calm     43 % 0.00 in /  0 mm
16:54 90.2 °F /  32.3 °C 65.3 °F /  18.5 °C 29.95 in /  1014.1 hPa Calm   1.2 mph /  1.9 km/h 44 % 0.00 in /  0 mm
16:59 90.1 °F /  32.3 °C 65.2 °F /  18.4 °C 29.95 in /  1014.1 hPa NNE 0.7 mph /  1.1 km/h 1.2 mph /  1.9 km/h 44 % 0.00 in /  0 mm
17:04 90.0 °F /  32.2 °C 66.4 °F /  19.1 °C 29.95 in /  1014.1 hPa Calm   1.2 mph /  1.9 km/h 46 % 0.00 in /  0 mm
17:09 89.9 °F /  32.2 °C 65.7 °F /  18.7 °C 29.95 in /  1014.1 hPa North 0.9 mph /  1.4 km/h 3.5 mph /  5.6 km/h 45 % 0.00 in /  0 mm
17:14 89.8 °F /  32.1 °C 66.3 °F /  19.1 °C 29.95 in /  1014.1 hPa North 1.0 mph /  1.6 km/h 3.0 mph /  4.8 km/h 46 % 0.00 in /  0 mm
17:19 89.6 °F /  32 °C 66.1 °F /  18.9 °C 29.96 in /  1014.4 hPa North 0.7 mph /  1.1 km/h 3.5 mph /  5.6 km/h 46 % 0.00 in /  0 mm
17:24 89.2 °F /  31.8 °C 65.7 °F /  18.7 °C 29.96 in /  1014.4 hPa ESE 1.1 mph /  1.8 km/h 3.5 mph /  5.6 km/h 46 % 0.00 in /  0 mm
17:29 88.7 °F /  31.5 °C 65.9 °F /  18.8 °C 29.95 in /  1014.1 hPa Calm   2.3 mph /  3.7 km/h 47 % 0.00 in /  0 mm
17:34 88.4 °F /  31.3 °C 65.6 °F /  18.7 °C 29.95 in /  1014.1 hPa SE 0.3 mph /  0.5 km/h   47 % 0.00 in /  0 mm
17:40 88.1 °F /  31.2 °C 65.3 °F /  18.5 °C 29.95 in /  1014.1 hPa SE 1.9 mph /  3.1 km/h 8.1 mph /  13 km/h 47 % 0.00 in /  0 mm
17:45 87.5 °F /  30.8 °C 66.0 °F /  18.9 °C 29.95 in /  1014.1 hPa Calm   3.5 mph /  5.6 km/h 49 % 0.00 in /  0 mm
17:50 87.1 °F /  30.6 °C 66.2 °F /  19 °C 29.95 in /  1014.1 hPa SSE 1.4 mph /  2.3 km/h 3.5 mph /  5.6 km/h 50 % 0.00 in /  0 mm
17:55 86.5 °F /  30.3 °C 65.1 °F /  18.4 °C 29.95 in /  1014.1 hPa South 0.6 mph /  1 km/h 3.5 mph /  5.6 km/h 49 % 0.00 in /  0 mm
18:00 85.9 °F /  29.9 °C 64.5 °F /  18.1 °C 29.96 in /  1014.4 hPa SE 3.1 mph /  5 km/h 8.1 mph /  13 km/h 49 % 0.00 in /  0 mm
18:05 85.2 °F /  29.6 °C 64.5 °F /  18.1 °C 29.96 in /  1014.4 hPa SSE 0.3 mph /  0.5 km/h 2.3 mph /  3.7 km/h 50 % 0.00 in /  0 mm
18:10 84.7 °F /  29.3 °C 64.6 °F /  18.1 °C 29.96 in /  1014.4 hPa SE 0.1 mph /  0.2 km/h 3.5 mph /  5.6 km/h 51 % 0.00 in /  0 mm
18:15 84.2 °F /  29 °C 64.7 °F /  18.2 °C 29.96 in /  1014.4 hPa SE 1.6 mph /  2.6 km/h 3.5 mph /  5.6 km/h 52 % 0.00 in /  0 mm
18:20 83.9 °F /  28.8 °C 65.5 °F /  18.6 °C 29.96 in /  1014.4 hPa South 1.4 mph /  2.3 km/h 3.5 mph /  5.6 km/h 54 % 0.00 in /  0 mm
18:25 83.7 °F /  28.7 °C 65.3 °F /  18.5 °C 29.96 in /  1014.4 hPa SSE 1.0 mph /  1.6 km/h 2.3 mph /  3.7 km/h 54 % 0.00 in /  0 mm
18:30 83.4 °F /  28.6 °C 65.5 °F /  18.6 °C 29.96 in /  1014.4 hPa SE 0.9 mph /  1.4 km/h 2.3 mph /  3.7 km/h 55 % 0.00 in /  0 mm
18:35 83.1 °F /  28.4 °C 65.8 °F /  18.8 °C 29.96 in /  1014.4 hPa SE 0.1 mph /  0.2 km/h 1.2 mph /  1.9 km/h 56 % 0.00 in /  0 mm
18:40 83.0 °F /  28.3 °C 65.7 °F /  18.7 °C 29.96 in /  1014.4 hPa SSE 1.1 mph /  1.8 km/h 4.6 mph /  7.4 km/h 56 % 0.00 in /  0 mm
18:45 82.7 °F /  28.2 °C 65.9 °F /  18.8 °C 29.96 in /  1014.4 hPa Calm   1.2 mph /  1.9 km/h 57 % 0.00 in /  0 mm
18:50 82.7 °F /  28.2 °C 65.9 °F /  18.8 °C 29.96 in /  1014.4 hPa SSE 0.3 mph /  0.5 km/h 2.3 mph /  3.7 km/h 57 % 0.00 in /  0 mm
18:55 82.4 °F /  28 °C 65.6 °F /  18.7 °C 29.96 in /  1014.4 hPa SSE 0.3 mph /  0.5 km/h 1.2 mph /  1.9 km/h 57 % 0.00 in /  0 mm
19:00 82.1 °F /  27.8 °C 65.4 °F /  18.6 °C 29.96 in /  1014.4 hPa SE 0.8 mph /  1.3 km/h 3.5 mph /  5.6 km/h 57 % 0.00 in /  0 mm
19:05 81.9 °F /  27.7 °C 65.2 °F /  18.4 °C 29.96 in /  1014.4 hPa SE 0.3 mph /  0.5 km/h 1.2 mph /  1.9 km/h 57 % 0.00 in /  0 mm
19:10 81.8 °F /  27.7 °C 65.1 °F /  18.4 °C 29.96 in /  1014.4 hPa SE 0.1 mph /  0.2 km/h 1.2 mph /  1.9 km/h 57 % 0.00 in /  0 mm
19:15 81.4 °F /  27.4 °C 64.7 °F /  18.2 °C 29.96 in /  1014.4 hPa SSE 0.2 mph /  0.3 km/h 1.2 mph /  1.9 km/h 57 % 0.00 in /  0 mm
19:20 81.0 °F /  27.2 °C 64.8 °F /  18.2 °C 29.96 in /  1014.4 hPa SSE 0.5 mph /  0.8 km/h 2.3 mph /  3.7 km/h 58 % 0.00 in /  0 mm
19:25 80.7 °F /  27.1 °C 65.0 °F /  18.3 °C 29.96 in /  1014.4 hPa SE 0.2 mph /  0.3 km/h 2.3 mph /  3.7 km/h 59 % 0.00 in /  0 mm
19:30 80.5 °F /  26.9 °C 65.3 °F /  18.5 °C 29.96 in /  1014.4 hPa SE 0.2 mph /  0.3 km/h 3.5 mph /  5.6 km/h 60 % 0.00 in /  0 mm
19:35 80.2 °F /  26.8 °C 65.1 °F /  18.4 °C 29.96 in /  1014.4 hPa SE 0.1 mph /  0.2 km/h 2.0 mph /  3.2 km/h 60 % 0.00 in /  0 mm
19:41 79.9 °F /  26.6 °C 65.2 °F /  18.4 °C 29.96 in /  1014.4 hPa SSE 1.0 mph /  1.6 km/h 4.0 mph /  6.4 km/h 61 % 0.00 in /  0 mm
19:46 79.4 °F /  26.3 °C 64.8 °F /  18.2 °C 29.96 in /  1014.4 hPa SSW 0.1 mph /  0.2 km/h 1.2 mph /  1.9 km/h 61 % 0.00 in /  0 mm
19:51 79.1 °F /  26.2 °C 65.4 °F /  18.6 °C 29.97 in /  1014.8 hPa Calm   1.0 mph /  1.6 km/h 63 % 0.00 in /  0 mm
19:56 78.7 °F /  25.9 °C 65.5 °F /  18.6 °C 29.96 in /  1014.4 hPa Calm   2.0 mph /  3.2 km/h 64 % 0.00 in /  0 mm
20:01 78.2 °F /  25.7 °C 65.5 °F /  18.6 °C 29.97 in /  1014.8 hPa SSW 1.2 mph /  1.9 km/h 3.5 mph /  5.6 km/h 65 % 0.00 in /  0 mm
20:06 77.9 °F /  25.5 °C 65.2 °F /  18.4 °C 29.97 in /  1014.8 hPa Calm   5.0 mph /  8 km/h 65 % 0.00 in /  0 mm
20:11 77.6 °F /  25.3 °C 65.8 °F /  18.8 °C 29.97 in /  1014.8 hPa SSE 0.3 mph /  0.5 km/h 2.3 mph /  3.7 km/h 67 % 0.00 in /  0 mm
20:16 77.3 °F /  25.2 °C 65.9 °F /  18.8 °C 29.97 in /  1014.8 hPa SSE 0.5 mph /  0.8 km/h 2.3 mph /  3.7 km/h 68 % 0.00 in /  0 mm
20:21 77.0 °F /  25 °C 65.6 °F /  18.7 °C 29.97 in /  1014.8 hPa SE 0.3 mph /  0.5 km/h 1.2 mph /  1.9 km/h 68 % 0.00 in /  0 mm
20:26 76.7 °F /  24.8 °C 65.3 °F /  18.5 °C 29.97 in /  1014.8 hPa SE 0.9 mph /  1.4 km/h 4.6 mph /  7.4 km/h 68 % 0.00 in /  0 mm
20:31 76.5 °F /  24.7 °C 65.1 °F /  18.4 °C 29.97 in /  1014.8 hPa SE 1.0 mph /  1.6 km/h 4.6 mph /  7.4 km/h 68 % 0.00 in /  0 mm
20:36 76.2 °F /  24.6 °C 64.9 °F /  18.3 °C 29.97 in /  1014.8 hPa SSE 0.3 mph /  0.5 km/h 2.3 mph /  3.7 km/h 68 % 0.00 in /  0 mm
20:41 76.0 °F /  24.4 °C 64.7 °F /  18.2 °C 29.97 in /  1014.8 hPa ESE 0.3 mph /  0.5 km/h 3.5 mph /  5.6 km/h 68 % 0.00 in /  0 mm
20:46 75.7 °F /  24.3 °C 64.8 °F /  18.2 °C 29.98 in /  1015.1 hPa SE 0.3 mph /  0.5 km/h 3.5 mph /  5.6 km/h 69 % 0.00 in /  0 mm
20:51 75.5 °F /  24.2 °C 64.6 °F /  18.1 °C 29.98 in /  1015.1 hPa SSE 0.5 mph /  0.8 km/h 2.3 mph /  3.7 km/h 69 % 0.00 in /  0 mm
20:56 75.3 °F /  24.1 °C 64.8 °F /  18.2 °C 29.98 in /  1015.1 hPa SE 0.2 mph /  0.3 km/h 1.2 mph /  1.9 km/h 70 % 0.00 in /  0 mm
21:01 75.2 °F /  24 °C 64.7 °F /  18.2 °C 29.98 in /  1015.1 hPa South 0.5 mph /  0.8 km/h 2.3 mph /  3.7 km/h 70 % 0.00 in /  0 mm
21:06 75.0 °F /  23.9 °C 64.5 °F /  18.1 °C 29.98 in /  1015.1 hPa SE 0.4 mph /  0.6 km/h 2.3 mph /  3.7 km/h 70 % 0.00 in /  0 mm
21:11 74.9 °F /  23.8 °C 64.9 °F /  18.3 °C 29.98 in /  1015.1 hPa South 1.1 mph /  1.8 km/h 3.5 mph /  5.6 km/h 71 % 0.00 in /  0 mm
21:16 74.8 °F /  23.8 °C 64.8 °F /  18.2 °C 29.98 in /  1015.1 hPa Calm   2.3 mph /  3.7 km/h 71 % 0.00 in /  0 mm
21:21 74.7 °F /  23.7 °C 64.7 °F /  18.2 °C 29.98 in /  1015.1 hPa SSW 1.5 mph /  2.4 km/h 3.5 mph /  5.6 km/h 71 % 0.00 in /  0 mm
21:26 74.5 °F /  23.6 °C 64.5 °F /  18.1 °C 29.98 in /  1015.1 hPa Calm   1.2 mph /  1.9 km/h 71 % 0.00 in /  0 mm
21:31 74.4 °F /  23.6 °C 64.4 °F /  18 °C 29.99 in /  1015.5 hPa SW 0.2 mph /  0.3 km/h 2.3 mph /  3.7 km/h 71 % 0.00 in /  0 mm
21:36 74.2 °F /  23.4 °C 64.2 °F /  17.9 °C 29.99 in /  1015.5 hPa SW 0.7 mph /  1.1 km/h 3.5 mph /  5.6 km/h 71 % 0.00 in /  0 mm
21:38 74.2 °F /  23.4 °C 64.2 °F /  17.9 °C 29.99 in /  1015.5 hPa West 0.8 mph /  1.3 km/h 2.3 mph /  3.7 km/h 71 % 0.00 in /  0 mm
21:43 74.0 °F /  23.3 °C 63.6 °F /  17.6 °C 29.99 in /  1015.5 hPa Calm   1.2 mph /  1.9 km/h 70 % 0.00 in /  0 mm
21:48 73.9 °F /  23.3 °C 63.5 °F /  17.5 °C 29.99 in /  1015.5 hPa Calm   3.5 mph /  5.6 km/h 70 % 0.00 in /  0 mm
21:53 73.7 °F /  23.2 °C 63.3 °F /  17.4 °C 29.98 in /  1015.1 hPa WSW 0.3 mph /  0.5 km/h 1.2 mph /  1.9 km/h 70 % 0.00 in /  0 mm
21:58 73.6 °F /  23.1 °C 63.2 °F /  17.3 °C 29.99 in /  1015.5 hPa SW 0.9 mph /  1.4 km/h 3.5 mph /  5.6 km/h 70 % 0.00 in /  0 mm
22:03 73.5 °F /  23.1 °C 63.1 °F /  17.3 °C 29.98 in /  1015.1 hPa SW 1.6 mph /  2.6 km/h 2.0 mph /  3.2 km/h 70 % 0.00 in /  0 mm
22:08 73.4 °F /  23 °C 63.0 °F /  17.2 °C 29.99 in /  1015.5 hPa SW 1.8 mph /  2.9 km/h 3.0 mph /  4.8 km/h 70 % 0.00 in /  0 mm
22:14 73.3 °F /  22.9 °C 62.9 °F /  17.2 °C 29.98 in /  1015.1 hPa WSW 1.1 mph /  1.8 km/h 2.0 mph /  3.2 km/h 70 % 0.00 in /  0 mm
22:19 73.2 °F /  22.9 °C 62.8 °F /  17.1 °C 29.98 in /  1015.1 hPa SSW 1.2 mph /  1.9 km/h 2.3 mph /  3.7 km/h 70 % 0.00 in /  0 mm
22:24 73.2 °F /  22.9 °C 62.8 °F /  17.1 °C 29.98 in /  1015.1 hPa SW 1.2 mph /  1.9 km/h 2.3 mph /  3.7 km/h 70 % 0.00 in /  0 mm
22:29 73.1 °F /  22.8 °C 62.7 °F /  17.1 °C 29.98 in /  1015.1 hPa Calm     70 % 0.00 in /  0 mm
22:34 73.1 °F /  22.8 °C 63.1 °F /  17.3 °C 29.98 in /  1015.1 hPa SW 0.2 mph /  0.3 km/h 1.0 mph /  1.6 km/h 71 % 0.00 in /  0 mm
22:39 73.1 °F /  22.8 °C 63.1 °F /  17.3 °C 29.98 in /  1015.1 hPa Calm   2.3 mph /  3.7 km/h 71 % 0.00 in /  0 mm
22:44 73.2 °F /  22.9 °C 63.2 °F /  17.3 °C 29.98 in /  1015.1 hPa SW 0.7 mph /  1.1 km/h 1.2 mph /  1.9 km/h 71 % 0.00 in /  0 mm
22:49 73.2 °F /  22.9 °C 63.6 °F /  17.6 °C 29.98 in /  1015.1 hPa Calm     72 % 0.00 in /  0 mm
22:54 73.2 °F /  22.9 °C 63.6 °F /  17.6 °C 29.97 in /  1014.8 hPa WSW 0.3 mph /  0.5 km/h 2.0 mph /  3.2 km/h 72 % 0.00 in /  0 mm
22:59 73.2 °F /  22.9 °C 63.2 °F /  17.3 °C 29.97 in /  1014.8 hPa Calm   1.2 mph /  1.9 km/h 71 % 0.00 in /  0 mm
23:04 73.1 °F /  22.8 °C 63.1 °F /  17.3 °C 29.97 in /  1014.8 hPa WSW 0.1 mph /  0.2 km/h 3.5 mph /  5.6 km/h 71 % 0.00 in /  0 mm
23:09 73.1 °F /  22.8 °C 63.5 °F /  17.5 °C 29.97 in /  1014.8 hPa Calm   2.3 mph /  3.7 km/h 72 % 0.00 in /  0 mm
23:14 73.1 °F /  22.8 °C 63.5 °F /  17.5 °C 29.97 in /  1014.8 hPa WSW 1.0 mph /  1.6 km/h 2.3 mph /  3.7 km/h 72 % 0.00 in /  0 mm
23:19 73.0 °F /  22.8 °C 63.4 °F /  17.4 °C 29.97 in /  1014.8 hPa Calm   1.2 mph /  1.9 km/h 72 % 0.00 in /  0 mm
23:24 73.0 °F /  22.8 °C 63.8 °F /  17.7 °C 29.96 in /  1014.4 hPa NW 0.1 mph /  0.2 km/h 3.5 mph /  5.6 km/h 73 % 0.00 in /  0 mm
23:29 72.9 °F /  22.7 °C 63.7 °F /  17.6 °C 29.97 in /  1014.8 hPa South 0.2 mph /  0.3 km/h 4.6 mph /  7.4 km/h 73 % 0.00 in /  0 mm
23:35 72.8 °F /  22.7 °C 63.6 °F /  17.6 °C 29.97 in /  1014.8 hPa SW 0.3 mph /  0.5 km/h 3.5 mph /  5.6 km/h 73 % 0.00 in /  0 mm
23:40 72.7 °F /  22.6 °C 63.5 °F /  17.5 °C 29.96 in /  1014.4 hPa Calm   1.2 mph /  1.9 km/h 73 % 0.00 in /  0 mm
23:45 72.6 °F /  22.6 °C 63.1 °F /  17.3 °C 29.97 in /  1014.8 hPa Calm   1.2 mph /  1.9 km/h 72 % 0.00 in /  0 mm
23:50 72.6 °F /  22.6 °C 63.1 °F /  17.3 °C 29.97 in /  1014.8 hPa Calm   1.2 mph /  1.9 km/h 72 % 0.00 in /  0 mm
23:55 72.5 °F /  22.5 °C 63.0 °F /  17.2 °C 29.97 in /  1014.8 hPa Calm   1.2 mph /  1.9 km/h 72 % 0.00 in /  0 mm
Crab Meadow Weather
Compliments of Weather Underground - 3 mb

Script developed by  Jim McMurry - jmcmurry@mwt.net Adapted for the template by  Wim van der Kuil - Leuven-Template.eu

One Inch of Rain: One inch of rain over one square mile equals to 17.4 million gallons of water.